sensor_id;sensor_type;location;lat;lon;timestamp;P1;durP1;ratioP1;P2;durP2;ratioP2
59474;SDS011;45288;51.136;16.928;2022-11-20T00:02:18;59.83;;;30.80;;
59474;SDS011;45288;51.136;16.928;2022-11-20T00:04:44;59.95;;;31.65;;
59474;SDS011;45288;51.136;16.928;2022-11-20T00:07:10;59.47;;;31.63;;
59474;SDS011;45288;51.136;16.928;2022-11-20T00:09:35;58.43;;;30.90;;
59474;SDS011;45288;51.136;16.928;2022-11-20T00:12:01;59.83;;;31.73;;
59474;SDS011;45288;51.136;16.928;2022-11-20T00:14:27;58.10;;;31.60;;
59474;SDS011;45288;51.136;16.928;2022-11-20T00:16:52;60.23;;;31.70;;
59474;SDS011;45288;51.136;16.928;2022-11-20T00:19:18;59.40;;;31.20;;
59474;SDS011;45288;51.136;16.928;2022-11-20T00:21:44;60.95;;;31.70;;
59474;SDS011;45288;51.136;16.928;2022-11-20T00:24:10;62.47;;;31.20;;
59474;SDS011;45288;51.136;16.928;2022-11-20T00:26:35;59.07;;;31.37;;
59474;SDS011;45288;51.136;16.928;2022-11-20T00:29:01;63.17;;;33.10;;
59474;SDS011;45288;51.136;16.928;2022-11-20T00:31:27;62.13;;;32.60;;
59474;SDS011;45288;51.136;16.928;2022-11-20T00:33:53;67.40;;;32.72;;
59474;SDS011;45288;51.136;16.928;2022-11-20T00:36:20;60.42;;;30.95;;
59474;SDS011;45288;51.136;16.928;2022-11-20T00:38:46;63.35;;;31.75;;
59474;SDS011;45288;51.136;16.928;2022-11-20T00:41:13;58.33;;;30.35;;
59474;SDS011;45288;51.136;16.928;2022-11-20T00:43:39;55.30;;;30.30;;
59474;SDS011;45288;51.136;16.928;2022-11-20T00:46:06;55.08;;;29.60;;
59474;SDS011;45288;51.136;16.928;2022-11-20T00:48:32;55.28;;;29.92;;
59474;SDS011;45288;51.136;16.928;2022-11-20T00:50:58;60.22;;;31.17;;
59474;SDS011;45288;51.136;16.928;2022-11-20T00:53:24;58.90;;;29.17;;
59474;SDS011;45288;51.136;16.928;2022-11-20T00:55:56;60.45;;;30.85;;
59474;SDS011;45288;51.136;16.928;2022-11-20T00:58:22;62.25;;;31.38;;
59474;SDS011;45288;51.136;16.928;2022-11-20T01:00:48;59.50;;;30.70;;
59474;SDS011;45288;51.136;16.928;2022-11-20T01:03:17;60.13;;;32.00;;
59474;SDS011;45288;51.136;16.928;2022-11-20T01:05:43;62.20;;;32.17;;
59474;SDS011;45288;51.136;16.928;2022-11-20T01:08:08;60.85;;;31.70;;
59474;SDS011;45288;51.136;16.928;2022-11-20T01:10:34;62.67;;;32.57;;
59474;SDS011;45288;51.136;16.928;2022-11-20T01:13:00;63.20;;;33.00;;
59474;SDS011;45288;51.136;16.928;2022-11-20T01:15:44;60.88;;;33.15;;
59474;SDS011;45288;51.136;16.928;2022-11-20T01:18:10;58.47;;;32.57;;
59474;SDS011;45288;51.136;16.928;2022-11-20T01:20:36;58.90;;;32.47;;
59474;SDS011;45288;51.136;16.928;2022-11-20T01:23:02;64.05;;;33.35;;
59474;SDS011;45288;51.136;16.928;2022-11-20T01:25:28;58.03;;;31.47;;
59474;SDS011;45288;51.136;16.928;2022-11-20T01:27:54;59.77;;;32.37;;
59474;SDS011;45288;51.136;16.928;2022-11-20T01:30:20;57.33;;;31.63;;
59474;SDS011;45288;51.136;16.928;2022-11-20T01:32:45;64.53;;;33.13;;
59474;SDS011;45288;51.136;16.928;2022-11-20T01:35:11;62.03;;;32.13;;
59474;SDS011;45288;51.136;16.928;2022-11-20T01:37:36;68.03;;;32.47;;
59474;SDS011;45288;51.136;16.928;2022-11-20T01:40:02;60.70;;;31.20;;
59474;SDS011;45288;51.136;16.928;2022-11-20T01:42:28;58.97;;;30.15;;
59474;SDS011;45288;51.136;16.928;2022-11-20T01:47:57;56.08;;;28.70;;
59474;SDS011;45288;51.136;16.928;2022-11-20T01:50:23;56.83;;;29.60;;
59474;SDS011;45288;51.136;16.928;2022-11-20T01:52:51;52.60;;;28.10;;
59474;SDS011;45288;51.136;16.928;2022-11-20T01:55:19;53.85;;;28.45;;
59474;SDS011;45288;51.136;16.928;2022-11-20T01:57:46;60.20;;;28.63;;
59474;SDS011;45288;51.136;16.928;2022-11-20T02:00:13;57.00;;;28.67;;
59474;SDS011;45288;51.136;16.928;2022-11-20T02:02:40;50.28;;;26.17;;
59474;SDS011;45288;51.136;16.928;2022-11-20T02:05:12;52.08;;;28.15;;
59474;SDS011;45288;51.136;16.928;2022-11-20T02:07:39;50.60;;;27.02;;
59474;SDS011;45288;51.136;16.928;2022-11-20T02:10:05;51.92;;;27.48;;
59474;SDS011;45288;51.136;16.928;2022-11-20T02:12:31;55.70;;;27.23;;
59474;SDS011;45288;51.136;16.928;2022-11-20T02:15:15;49.63;;;26.02;;
59474;SDS011;45288;51.136;16.928;2022-11-20T02:17:41;51.05;;;26.67;;
59474;SDS011;45288;51.136;16.928;2022-11-20T02:20:07;51.75;;;25.13;;
59474;SDS011;45288;51.136;16.928;2022-11-20T02:22:36;50.15;;;25.67;;
59474;SDS011;45288;51.136;16.928;2022-11-20T02:25:03;48.85;;;25.15;;
59474;SDS011;45288;51.136;16.928;2022-11-20T02:27:30;49.13;;;24.30;;
59474;SDS011;45288;51.136;16.928;2022-11-20T02:29:57;48.33;;;25.73;;
59474;SDS011;45288;51.136;16.928;2022-11-20T02:32:33;47.88;;;25.58;;
59474;SDS011;45288;51.136;16.928;2022-11-20T02:37:43;50.28;;;25.05;;
59474;SDS011;45288;51.136;16.928;2022-11-20T02:40:10;45.80;;;23.52;;
59474;SDS011;45288;51.136;16.928;2022-11-20T02:42:36;47.45;;;24.45;;
59474;SDS011;45288;51.136;16.928;2022-11-20T02:45:02;46.67;;;24.23;;
59474;SDS011;45288;51.136;16.928;2022-11-20T02:47:28;50.30;;;25.60;;
59474;SDS011;45288;51.136;16.928;2022-11-20T02:49:54;48.10;;;24.85;;
59474;SDS011;45288;51.136;16.928;2022-11-20T02:52:19;49.60;;;26.13;;
59474;SDS011;45288;51.136;16.928;2022-11-20T02:54:45;46.80;;;25.53;;
59474;SDS011;45288;51.136;16.928;2022-11-20T02:57:10;48.97;;;25.20;;
59474;SDS011;45288;51.136;16.928;2022-11-20T02:59:36;47.25;;;25.40;;
59474;SDS011;45288;51.136;16.928;2022-11-20T03:02:02;48.70;;;25.80;;
59474;SDS011;45288;51.136;16.928;2022-11-20T03:04:27;50.47;;;25.92;;
59474;SDS011;45288;51.136;16.928;2022-11-20T03:06:53;48.60;;;25.75;;
59474;SDS011;45288;51.136;16.928;2022-11-20T03:09:19;45.97;;;24.27;;
59474;SDS011;45288;51.136;16.928;2022-11-20T03:11:44;43.67;;;23.17;;
59474;SDS011;45288;51.136;16.928;2022-11-20T03:14:10;41.90;;;22.60;;
59474;SDS011;45288;51.136;16.928;2022-11-20T03:16:36;42.17;;;22.38;;
59474;SDS011;45288;51.136;16.928;2022-11-20T03:19:02;42.47;;;22.03;;
59474;SDS011;45288;51.136;16.928;2022-11-20T03:21:27;41.97;;;21.70;;
59474;SDS011;45288;51.136;16.928;2022-11-20T03:23:53;42.78;;;21.58;;
59474;SDS011;45288;51.136;16.928;2022-11-20T03:26:21;41.30;;;21.23;;
59474;SDS011;45288;51.136;16.928;2022-11-20T03:28:53;39.15;;;20.98;;
59474;SDS011;45288;51.136;16.928;2022-11-20T03:31:21;40.55;;;21.25;;
59474;SDS011;45288;51.136;16.928;2022-11-20T03:33:46;37.20;;;20.87;;
59474;SDS011;45288;51.136;16.928;2022-11-20T03:36:13;38.87;;;20.93;;
59474;SDS011;45288;51.136;16.928;2022-11-20T03:38:39;40.75;;;21.05;;
59474;SDS011;45288;51.136;16.928;2022-11-20T03:41:06;39.63;;;20.50;;
59474;SDS011;45288;51.136;16.928;2022-11-20T03:43:32;40.30;;;21.05;;
59474;SDS011;45288;51.136;16.928;2022-11-20T03:45:58;37.13;;;20.90;;
59474;SDS011;45288;51.136;16.928;2022-11-20T03:48:23;38.00;;;20.37;;
59474;SDS011;45288;51.136;16.928;2022-11-20T03:50:49;40.17;;;20.80;;
59474;SDS011;45288;51.136;16.928;2022-11-20T03:53:15;36.53;;;20.52;;
59474;SDS011;45288;51.136;16.928;2022-11-20T03:55:41;37.35;;;20.42;;
59474;SDS011;45288;51.136;16.928;2022-11-20T03:58:07;37.58;;;20.15;;
59474;SDS011;45288;51.136;16.928;2022-11-20T04:00:32;35.53;;;19.50;;
59474;SDS011;45288;51.136;16.928;2022-11-20T04:02:58;39.50;;;21.07;;
59474;SDS011;45288;51.136;16.928;2022-11-20T04:05:24;39.22;;;21.15;;
59474;SDS011;45288;51.136;16.928;2022-11-20T04:07:50;35.60;;;20.10;;
59474;SDS011;45288;51.136;16.928;2022-11-20T04:10:16;35.45;;;19.83;;
59474;SDS011;45288;51.136;16.928;2022-11-20T04:12:41;37.88;;;19.95;;
59474;SDS011;45288;51.136;16.928;2022-11-20T04:15:07;35.67;;;19.23;;
59474;SDS011;45288;51.136;16.928;2022-11-20T04:17:33;36.57;;;20.33;;
59474;SDS011;45288;51.136;16.928;2022-11-20T04:19:59;37.07;;;20.00;;
59474;SDS011;45288;51.136;16.928;2022-11-20T04:22:24;36.85;;;20.50;;
59474;SDS011;45288;51.136;16.928;2022-11-20T04:24:50;37.57;;;20.13;;
59474;SDS011;45288;51.136;16.928;2022-11-20T04:27:16;36.50;;;20.83;;
59474;SDS011;45288;51.136;16.928;2022-11-20T04:29:41;35.63;;;19.75;;
59474;SDS011;45288;51.136;16.928;2022-11-20T04:32:07;38.90;;;20.65;;
59474;SDS011;45288;51.136;16.928;2022-11-20T04:34:33;39.90;;;20.98;;
59474;SDS011;45288;51.136;16.928;2022-11-20T04:36:59;39.87;;;20.53;;
59474;SDS011;45288;51.136;16.928;2022-11-20T04:39:24;38.65;;;20.67;;
59474;SDS011;45288;51.136;16.928;2022-11-20T04:41:50;37.90;;;20.37;;
59474;SDS011;45288;51.136;16.928;2022-11-20T04:44:35;37.95;;;20.17;;
59474;SDS011;45288;51.136;16.928;2022-11-20T04:47:02;35.65;;;19.92;;
59474;SDS011;45288;51.136;16.928;2022-11-20T04:49:27;40.83;;;21.02;;
59474;SDS011;45288;51.136;16.928;2022-11-20T04:51:53;41.40;;;21.80;;
59474;SDS011;45288;51.136;16.928;2022-11-20T04:54:19;40.25;;;21.60;;
59474;SDS011;45288;51.136;16.928;2022-11-20T04:56:48;40.92;;;20.90;;
59474;SDS011;45288;51.136;16.928;2022-11-20T04:59:14;43.92;;;21.55;;
59474;SDS011;45288;51.136;16.928;2022-11-20T05:01:40;39.67;;;20.43;;
59474;SDS011;45288;51.136;16.928;2022-11-20T05:04:05;39.50;;;21.13;;
59474;SDS011;45288;51.136;16.928;2022-11-20T05:06:31;35.92;;;19.98;;
59474;SDS011;45288;51.136;16.928;2022-11-20T05:08:57;38.40;;;20.85;;
59474;SDS011;45288;51.136;16.928;2022-11-20T05:11:23;40.90;;;20.77;;
59474;SDS011;45288;51.136;16.928;2022-11-20T05:13:49;41.85;;;21.88;;
59474;SDS011;45288;51.136;16.928;2022-11-20T05:16:16;39.92;;;20.83;;
59474;SDS011;45288;51.136;16.928;2022-11-20T05:18:42;40.38;;;21.23;;
59474;SDS011;45288;51.136;16.928;2022-11-20T05:21:08;40.03;;;20.80;;
59474;SDS011;45288;51.136;16.928;2022-11-20T05:23:35;37.55;;;20.58;;
59474;SDS011;45288;51.136;16.928;2022-11-20T05:26:01;39.27;;;21.07;;
59474;SDS011;45288;51.136;16.928;2022-11-20T05:28:29;39.90;;;20.80;;
59474;SDS011;45288;51.136;16.928;2022-11-20T05:30:55;40.25;;;21.52;;
59474;SDS011;45288;51.136;16.928;2022-11-20T05:33:21;42.50;;;22.10;;
59474;SDS011;45288;51.136;16.928;2022-11-20T05:35:47;39.90;;;22.43;;
59474;SDS011;45288;51.136;16.928;2022-11-20T05:38:13;41.25;;;22.15;;
59474;SDS011;45288;51.136;16.928;2022-11-20T05:40:39;46.00;;;21.97;;
59474;SDS011;45288;51.136;16.928;2022-11-20T05:43:05;43.47;;;22.97;;
59474;SDS011;45288;51.136;16.928;2022-11-20T05:45:30;41.03;;;22.23;;
59474;SDS011;45288;51.136;16.928;2022-11-20T05:47:59;43.63;;;23.07;;
59474;SDS011;45288;51.136;16.928;2022-11-20T05:50:26;44.77;;;23.30;;
59474;SDS011;45288;51.136;16.928;2022-11-20T05:52:51;44.10;;;22.80;;
59474;SDS011;45288;51.136;16.928;2022-11-20T05:55:17;45.88;;;23.75;;
59474;SDS011;45288;51.136;16.928;2022-11-20T05:57:43;43.90;;;24.07;;
59474;SDS011;45288;51.136;16.928;2022-11-20T06:00:09;45.00;;;23.33;;
59474;SDS011;45288;51.136;16.928;2022-11-20T06:02:35;46.83;;;24.63;;
59474;SDS011;45288;51.136;16.928;2022-11-20T06:05:01;47.28;;;24.17;;
59474;SDS011;45288;51.136;16.928;2022-11-20T06:07:27;45.97;;;23.77;;
59474;SDS011;45288;51.136;16.928;2022-11-20T06:09:52;45.73;;;24.00;;
59474;SDS011;45288;51.136;16.928;2022-11-20T06:12:18;48.23;;;25.10;;
59474;SDS011;45288;51.136;16.928;2022-11-20T06:14:43;50.23;;;25.40;;
59474;SDS011;45288;51.136;16.928;2022-11-20T06:17:09;46.58;;;24.48;;
59474;SDS011;45288;51.136;16.928;2022-11-20T06:19:35;48.17;;;25.25;;
59474;SDS011;45288;51.136;16.928;2022-11-20T06:22:01;45.95;;;24.95;;
59474;SDS011;45288;51.136;16.928;2022-11-20T06:24:27;44.65;;;23.70;;
59474;SDS011;45288;51.136;16.928;2022-11-20T06:26:52;45.17;;;23.80;;
59474;SDS011;45288;51.136;16.928;2022-11-20T06:29:18;46.38;;;23.98;;
59474;SDS011;45288;51.136;16.928;2022-11-20T06:31:43;48.43;;;24.13;;
59474;SDS011;45288;51.136;16.928;2022-11-20T06:34:09;43.65;;;23.08;;
59474;SDS011;45288;51.136;16.928;2022-11-20T06:36:35;43.57;;;23.37;;
59474;SDS011;45288;51.136;16.928;2022-11-20T06:39:01;46.15;;;24.58;;
59474;SDS011;45288;51.136;16.928;2022-11-20T06:41:27;50.08;;;25.23;;
59474;SDS011;45288;51.136;16.928;2022-11-20T06:43:53;53.25;;;28.58;;
59474;SDS011;45288;51.136;16.928;2022-11-20T06:46:20;59.10;;;31.38;;
59474;SDS011;45288;51.136;16.928;2022-11-20T06:48:46;66.75;;;33.80;;
59474;SDS011;45288;51.136;16.928;2022-11-20T06:51:12;65.55;;;34.22;;
59474;SDS011;45288;51.136;16.928;2022-11-20T06:53:37;65.40;;;33.95;;
59474;SDS011;45288;51.136;16.928;2022-11-20T06:56:03;72.37;;;34.70;;
59474;SDS011;45288;51.136;16.928;2022-11-20T06:58:30;64.43;;;33.07;;
59474;SDS011;45288;51.136;16.928;2022-11-20T07:01:03;63.15;;;33.17;;
59474;SDS011;45288;51.136;16.928;2022-11-20T07:03:29;57.05;;;30.50;;
59474;SDS011;45288;51.136;16.928;2022-11-20T07:05:55;64.57;;;33.47;;
59474;SDS011;45288;51.136;16.928;2022-11-20T07:08:21;66.78;;;33.72;;
59474;SDS011;45288;51.136;16.928;2022-11-20T07:10:49;66.85;;;32.55;;
59474;SDS011;45288;51.136;16.928;2022-11-20T07:13:14;76.93;;;36.78;;
59474;SDS011;45288;51.136;16.928;2022-11-20T07:15:40;87.40;;;38.53;;
59474;SDS011;45288;51.136;16.928;2022-11-20T07:18:05;96.57;;;42.43;;
59474;SDS011;45288;51.136;16.928;2022-11-20T07:20:31;97.10;;;43.08;;
59474;SDS011;45288;51.136;16.928;2022-11-20T07:22:57;90.53;;;41.97;;
59474;SDS011;45288;51.136;16.928;2022-11-20T07:25:23;76.10;;;35.93;;
59474;SDS011;45288;51.136;16.928;2022-11-20T07:27:49;68.95;;;33.95;;
59474;SDS011;45288;51.136;16.928;2022-11-20T07:30:15;57.30;;;30.90;;
59474;SDS011;45288;51.136;16.928;2022-11-20T07:32:41;54.38;;;28.55;;
59474;SDS011;45288;51.136;16.928;2022-11-20T07:35:07;53.80;;;29.00;;
59474;SDS011;45288;51.136;16.928;2022-11-20T07:37:36;54.13;;;28.07;;
59474;SDS011;45288;51.136;16.928;2022-11-20T07:40:01;50.42;;;27.48;;
59474;SDS011;45288;51.136;16.928;2022-11-20T07:42:27;52.28;;;27.27;;
59474;SDS011;45288;51.136;16.928;2022-11-20T07:44:55;51.17;;;27.57;;
59474;SDS011;45288;51.136;16.928;2022-11-20T07:47:20;48.33;;;26.47;;
59474;SDS011;45288;51.136;16.928;2022-11-20T07:49:46;52.88;;;27.98;;
59474;SDS011;45288;51.136;16.928;2022-11-20T07:52:12;58.70;;;31.90;;
59474;SDS011;45288;51.136;16.928;2022-11-20T07:54:38;65.30;;;32.85;;
59474;SDS011;45288;51.136;16.928;2022-11-20T07:57:03;66.97;;;34.30;;
59474;SDS011;45288;51.136;16.928;2022-11-20T07:59:29;58.72;;;32.35;;
59474;SDS011;45288;51.136;16.928;2022-11-20T08:01:55;58.55;;;31.52;;
59474;SDS011;45288;51.136;16.928;2022-11-20T08:04:21;51.65;;;28.05;;
59474;SDS011;45288;51.136;16.928;2022-11-20T08:06:47;51.37;;;27.27;;
59474;SDS011;45288;51.136;16.928;2022-11-20T08:09:12;52.17;;;27.80;;
59474;SDS011;45288;51.136;16.928;2022-11-20T08:11:38;47.95;;;26.67;;
59474;SDS011;45288;51.136;16.928;2022-11-20T08:14:22;50.25;;;26.08;;
59474;SDS011;45288;51.136;16.928;2022-11-20T08:16:48;47.80;;;25.58;;
59474;SDS011;45288;51.136;16.928;2022-11-20T08:19:15;49.03;;;26.60;;
59474;SDS011;45288;51.136;16.928;2022-11-20T08:21:41;49.05;;;26.63;;
59474;SDS011;45288;51.136;16.928;2022-11-20T08:24:07;48.30;;;27.02;;
59474;SDS011;45288;51.136;16.928;2022-11-20T08:26:34;49.00;;;26.60;;
59474;SDS011;45288;51.136;16.928;2022-11-20T08:29:00;52.58;;;28.40;;
59474;SDS011;45288;51.136;16.928;2022-11-20T08:31:25;49.23;;;26.90;;
59474;SDS011;45288;51.136;16.928;2022-11-20T08:33:51;49.00;;;25.25;;
59474;SDS011;45288;51.136;16.928;2022-11-20T08:36:17;47.10;;;26.48;;
59474;SDS011;45288;51.136;16.928;2022-11-20T08:38:46;48.60;;;26.67;;
59474;SDS011;45288;51.136;16.928;2022-11-20T08:41:12;45.50;;;25.52;;
59474;SDS011;45288;51.136;16.928;2022-11-20T08:43:52;44.80;;;25.95;;
59474;SDS011;45288;51.136;16.928;2022-11-20T08:46:18;44.13;;;25.27;;
59474;SDS011;45288;51.136;16.928;2022-11-20T08:48:44;46.50;;;24.23;;
59474;SDS011;45288;51.136;16.928;2022-11-20T08:51:10;41.92;;;24.10;;
59474;SDS011;45288;51.136;16.928;2022-11-20T08:53:36;41.25;;;23.52;;
59474;SDS011;45288;51.136;16.928;2022-11-20T08:56:02;41.83;;;22.95;;
59474;SDS011;45288;51.136;16.928;2022-11-20T08:58:27;41.13;;;22.80;;
59474;SDS011;45288;51.136;16.928;2022-11-20T09:00:53;40.75;;;23.35;;
59474;SDS011;45288;51.136;16.928;2022-11-20T09:03:19;40.30;;;23.87;;
59474;SDS011;45288;51.136;16.928;2022-11-20T09:05:44;42.30;;;24.00;;
59474;SDS011;45288;51.136;16.928;2022-11-20T09:08:10;42.25;;;24.38;;
59474;SDS011;45288;51.136;16.928;2022-11-20T09:10:36;43.78;;;24.15;;
59474;SDS011;45288;51.136;16.928;2022-11-20T09:13:02;37.07;;;22.60;;
59474;SDS011;45288;51.136;16.928;2022-11-20T09:15:27;36.25;;;21.33;;
59474;SDS011;45288;51.136;16.928;2022-11-20T09:17:57;37.97;;;21.23;;
59474;SDS011;45288;51.136;16.928;2022-11-20T09:20:23;37.83;;;21.30;;
59474;SDS011;45288;51.136;16.928;2022-11-20T09:22:49;37.53;;;20.90;;
59474;SDS011;45288;51.136;16.928;2022-11-20T09:25:15;36.13;;;20.30;;
59474;SDS011;45288;51.136;16.928;2022-11-20T09:27:40;35.63;;;20.63;;
59474;SDS011;45288;51.136;16.928;2022-11-20T09:30:12;36.17;;;20.33;;
59474;SDS011;45288;51.136;16.928;2022-11-20T09:32:41;35.17;;;20.85;;
59474;SDS011;45288;51.136;16.928;2022-11-20T09:35:07;36.78;;;20.60;;
59474;SDS011;45288;51.136;16.928;2022-11-20T09:37:33;41.10;;;20.98;;
59474;SDS011;45288;51.136;16.928;2022-11-20T09:39:58;38.87;;;21.33;;
59474;SDS011;45288;51.136;16.928;2022-11-20T09:42:32;37.30;;;20.73;;
59474;SDS011;45288;51.136;16.928;2022-11-20T09:46:02;37.30;;;21.30;;
59474;SDS011;45288;51.136;16.928;2022-11-20T09:50:45;37.85;;;21.55;;
59474;SDS011;45288;51.136;16.928;2022-11-20T09:53:20;36.33;;;21.83;;
59474;SDS011;45288;51.136;16.928;2022-11-20T09:55:47;36.10;;;20.35;;
59474;SDS011;45288;51.136;16.928;2022-11-20T10:00:56;33.15;;;19.83;;
59474;SDS011;45288;51.136;16.928;2022-11-20T10:03:26;35.27;;;20.50;;
59474;SDS011;45288;51.136;16.928;2022-11-20T10:05:57;31.55;;;18.52;;
59474;SDS011;45288;51.136;16.928;2022-11-20T10:08:38;31.83;;;18.05;;
59474;SDS011;45288;51.136;16.928;2022-11-20T10:11:06;32.03;;;18.95;;
59474;SDS011;45288;51.136;16.928;2022-11-20T10:13:45;30.85;;;17.95;;
59474;SDS011;45288;51.136;16.928;2022-11-20T10:16:18;30.90;;;18.93;;
59474;SDS011;45288;51.136;16.928;2022-11-20T10:23:51;32.47;;;19.23;;
59474;SDS011;45288;51.136;16.928;2022-11-20T10:26:26;32.97;;;18.83;;
59474;SDS011;45288;51.136;16.928;2022-11-20T10:29:00;32.50;;;20.20;;
59474;SDS011;45288;51.136;16.928;2022-11-20T10:35:00;32.35;;;19.33;;
59474;SDS011;45288;51.136;16.928;2022-11-20T10:37:06;32.25;;;18.50;;
59474;SDS011;45288;51.136;16.928;2022-11-20T10:39:50;30.75;;;18.88;;
59474;SDS011;45288;51.136;16.928;2022-11-20T10:42:20;29.67;;;18.30;;
59474;SDS011;45288;51.136;16.928;2022-11-20T10:44:50;28.77;;;17.02;;
59474;SDS011;45288;51.136;16.928;2022-11-20T10:47:27;27.27;;;16.42;;
59474;SDS011;45288;51.136;16.928;2022-11-20T10:49:54;26.67;;;16.27;;
59474;SDS011;45288;51.136;16.928;2022-11-20T10:54:53;27.47;;;16.60;;
59474;SDS011;45288;51.136;16.928;2022-11-20T11:02:24;25.23;;;14.40;;
59474;SDS011;45288;51.136;16.928;2022-11-20T11:04:56;23.38;;;14.55;;
59474;SDS011;45288;51.136;16.928;2022-11-20T11:07:34;20.75;;;13.85;;
59474;SDS011;45288;51.136;16.928;2022-11-20T11:10:01;24.10;;;14.80;;
59474;SDS011;45288;51.136;16.928;2022-11-20T11:12:27;21.50;;;14.03;;
59474;SDS011;45288;51.136;16.928;2022-11-20T11:14:54;23.77;;;14.25;;
59474;SDS011;45288;51.136;16.928;2022-11-20T11:17:30;22.40;;;14.07;;
59474;SDS011;45288;51.136;16.928;2022-11-20T11:22:25;23.83;;;14.73;;
59474;SDS011;45288;51.136;16.928;2022-11-20T11:24:53;23.80;;;14.65;;
59474;SDS011;45288;51.136;16.928;2022-11-20T11:27:19;23.88;;;14.88;;
59474;SDS011;45288;51.136;16.928;2022-11-20T11:29:45;22.45;;;14.07;;
59474;SDS011;45288;51.136;16.928;2022-11-20T11:34:36;21.65;;;14.23;;
59474;SDS011;45288;51.136;16.928;2022-11-20T11:37:02;25.73;;;15.00;;
59474;SDS011;45288;51.136;16.928;2022-11-20T11:39:29;26.67;;;16.07;;
59474;SDS011;45288;51.136;16.928;2022-11-20T11:41:55;25.33;;;15.32;;
59474;SDS011;45288;51.136;16.928;2022-11-20T11:44:27;26.05;;;15.30;;
59474;SDS011;45288;51.136;16.928;2022-11-20T11:47:25;24.30;;;15.52;;
59474;SDS011;45288;51.136;16.928;2022-11-20T11:50:07;26.92;;;15.88;;
59474;SDS011;45288;51.136;16.928;2022-11-20T11:52:49;24.77;;;15.52;;
59474;SDS011;45288;51.136;16.928;2022-11-20T11:55:36;24.05;;;15.57;;
59474;SDS011;45288;51.136;16.928;2022-11-20T12:00:32;25.70;;;15.77;;
59474;SDS011;45288;51.136;16.928;2022-11-20T12:03:07;27.17;;;16.23;;
59474;SDS011;45288;51.136;16.928;2022-11-20T12:05:42;24.63;;;15.80;;
59474;SDS011;45288;51.136;16.928;2022-11-20T12:08:17;24.95;;;15.48;;
59474;SDS011;45288;51.136;16.928;2022-11-20T12:10:46;28.73;;;16.05;;
59474;SDS011;45288;51.136;16.928;2022-11-20T12:13:17;25.40;;;15.40;;
59474;SDS011;45288;51.136;16.928;2022-11-20T12:15:44;24.40;;;14.73;;
59474;SDS011;45288;51.136;16.928;2022-11-20T12:18:13;24.13;;;15.38;;
59474;SDS011;45288;51.136;16.928;2022-11-20T12:20:41;22.98;;;14.90;;
59474;SDS011;45288;51.136;16.928;2022-11-20T12:23:20;26.13;;;15.35;;
59474;SDS011;45288;51.136;16.928;2022-11-20T12:25:48;25.23;;;15.77;;
59474;SDS011;45288;51.136;16.928;2022-11-20T12:28:25;23.97;;;15.13;;
59474;SDS011;45288;51.136;16.928;2022-11-20T12:36:07;25.17;;;15.80;;
59474;SDS011;45288;51.136;16.928;2022-11-20T12:47:24;26.98;;;16.05;;
59474;SDS011;45288;51.136;16.928;2022-11-20T12:54:58;26.10;;;16.15;;
59474;SDS011;45288;51.136;16.928;2022-11-20T13:05:11;27.52;;;15.50;;
59474;SDS011;45288;51.136;16.928;2022-11-20T13:07:38;23.92;;;15.55;;
59474;SDS011;45288;51.136;16.928;2022-11-20T13:10:04;25.90;;;15.38;;
59474;SDS011;45288;51.136;16.928;2022-11-20T13:12:35;24.25;;;15.20;;
59474;SDS011;45288;51.136;16.928;2022-11-20T13:17:34;24.35;;;15.27;;
59474;SDS011;45288;51.136;16.928;2022-11-20T13:20:03;24.70;;;14.93;;
59474;SDS011;45288;51.136;16.928;2022-11-20T13:22:47;24.13;;;15.47;;
59474;SDS011;45288;51.136;16.928;2022-11-20T13:30:37;25.75;;;15.00;;
59474;SDS011;45288;51.136;16.928;2022-11-20T13:35:59;23.80;;;14.67;;
59474;SDS011;45288;51.136;16.928;2022-11-20T13:38:25;25.48;;;15.27;;
59474;SDS011;45288;51.136;16.928;2022-11-20T13:40:55;23.50;;;15.00;;
59474;SDS011;45288;51.136;16.928;2022-11-20T13:43:22;24.58;;;14.85;;
59474;SDS011;45288;51.136;16.928;2022-11-20T13:45:59;26.00;;;15.75;;
59474;SDS011;45288;51.136;16.928;2022-11-20T13:48:26;24.88;;;15.27;;
59474;SDS011;45288;51.136;16.928;2022-11-20T13:50:57;24.27;;;14.82;;
59474;SDS011;45288;51.136;16.928;2022-11-20T13:53:33;25.37;;;15.00;;
59474;SDS011;45288;51.136;16.928;2022-11-20T13:56:07;25.65;;;15.65;;
59474;SDS011;45288;51.136;16.928;2022-11-20T13:58:48;23.88;;;14.65;;
59474;SDS011;45288;51.136;16.928;2022-11-20T14:01:21;23.40;;;14.50;;
59474;SDS011;45288;51.136;16.928;2022-11-20T14:03:48;22.00;;;13.77;;
59474;SDS011;45288;51.136;16.928;2022-11-20T14:06:25;22.42;;;13.65;;
59474;SDS011;45288;51.136;16.928;2022-11-20T14:08:52;23.23;;;14.40;;
59474;SDS011;45288;51.136;16.928;2022-11-20T14:11:19;25.13;;;14.70;;
59474;SDS011;45288;51.136;16.928;2022-11-20T14:14:04;21.65;;;14.60;;
59474;SDS011;45288;51.136;16.928;2022-11-20T14:16:38;24.70;;;14.50;;
59474;SDS011;45288;51.136;16.928;2022-11-20T14:21:42;24.23;;;15.05;;
59474;SDS011;45288;51.136;16.928;2022-11-20T14:24:10;25.13;;;15.68;;
59474;SDS011;45288;51.136;16.928;2022-11-20T14:26:37;27.05;;;16.23;;
59474;SDS011;45288;51.136;16.928;2022-11-20T14:29:03;24.45;;;15.55;;
59474;SDS011;45288;51.136;16.928;2022-11-20T14:31:29;28.60;;;16.50;;
59474;SDS011;45288;51.136;16.928;2022-11-20T14:33:55;27.35;;;16.65;;
59474;SDS011;45288;51.136;16.928;2022-11-20T14:36:22;28.75;;;16.55;;
59474;SDS011;45288;51.136;16.928;2022-11-20T14:38:48;25.70;;;16.48;;
59474;SDS011;45288;51.136;16.928;2022-11-20T14:41:24;26.95;;;16.58;;
59474;SDS011;45288;51.136;16.928;2022-11-20T14:43:54;28.27;;;16.65;;
59474;SDS011;45288;51.136;16.928;2022-11-20T14:46:21;27.70;;;17.40;;
59474;SDS011;45288;51.136;16.928;2022-11-20T14:48:48;27.65;;;17.48;;
59474;SDS011;45288;51.136;16.928;2022-11-20T14:51:28;27.42;;;16.73;;
59474;SDS011;45288;51.136;16.928;2022-11-20T14:53:55;33.10;;;18.23;;
59474;SDS011;45288;51.136;16.928;2022-11-20T14:56:21;34.42;;;18.40;;
59474;SDS011;45288;51.136;16.928;2022-11-20T14:58:55;40.13;;;21.70;;
59474;SDS011;45288;51.136;16.928;2022-11-20T15:01:25;40.58;;;21.35;;
59474;SDS011;45288;51.136;16.928;2022-11-20T15:03:57;37.97;;;21.02;;
59474;SDS011;45288;51.136;16.928;2022-11-20T15:06:25;32.67;;;20.17;;
59474;SDS011;45288;51.136;16.928;2022-11-20T15:08:52;34.53;;;20.00;;
59474;SDS011;45288;51.136;16.928;2022-11-20T15:11:18;28.98;;;17.75;;
59474;SDS011;45288;51.136;16.928;2022-11-20T15:13:45;30.60;;;17.73;;
59474;SDS011;45288;51.136;16.928;2022-11-20T15:16:17;32.08;;;17.67;;
59474;SDS011;45288;51.136;16.928;2022-11-20T15:18:43;28.88;;;18.00;;
59474;SDS011;45288;51.136;16.928;2022-11-20T15:21:13;32.58;;;19.80;;
59474;SDS011;45288;51.136;16.928;2022-11-20T15:23:40;43.20;;;22.65;;
59474;SDS011;45288;51.136;16.928;2022-11-20T15:26:06;44.50;;;25.00;;
59474;SDS011;45288;51.136;16.928;2022-11-20T15:28:42;49.80;;;26.20;;